sensor_id;sensor_type;location;lat;lon;timestamp;pressure;altitude;pressure_sealevel;temperature;humidity
7906;BME280;13291;40.472;-3.878;2023-04-08T00:01:25;52981.97;;;-139.96;27.64
7906;BME280;13291;40.472;-3.878;2023-04-08T00:03:51;52965.97;;;-139.96;27.39
7906;BME280;13291;40.472;-3.878;2023-04-08T00:06:20;52963.97;;;-139.96;27.14
7906;BME280;13291;40.472;-3.878;2023-04-08T00:08:47;52985.97;;;-139.96;27.21
7906;BME280;13291;40.472;-3.878;2023-04-08T00:11:14;52989.97;;;-139.96;26.61
7906;BME280;13291;40.472;-3.878;2023-04-08T00:13:41;52955.97;;;-139.96;27.15
7906;BME280;13291;40.472;-3.878;2023-04-08T00:16:07;52971.97;;;-139.96;26.43
7906;BME280;13291;40.472;-3.878;2023-04-08T00:18:34;52973.97;;;-139.96;26.76
7906;BME280;13291;40.472;-3.878;2023-04-08T00:21:02;52983.97;;;-139.96;27.19
7906;BME280;13291;40.472;-3.878;2023-04-08T00:23:31;52967.97;;;-139.96;27.60
7906;BME280;13291;40.472;-3.878;2023-04-08T00:25:58;52977.97;;;-139.96;27.66
7906;BME280;13291;40.472;-3.878;2023-04-08T00:28:25;52977.97;;;-139.96;27.81
7906;BME280;13291;40.472;-3.878;2023-04-08T00:30:52;52989.97;;;-139.96;27.31
7906;BME280;13291;40.472;-3.878;2023-04-08T00:33:19;52981.97;;;-139.96;27.25
7906;BME280;13291;40.472;-3.878;2023-04-08T00:35:46;52981.97;;;-139.96;28.26
7906;BME280;13291;40.472;-3.878;2023-04-08T00:38:13;52987.97;;;-139.96;28.05
7906;BME280;13291;40.472;-3.878;2023-04-08T00:40:42;52975.97;;;-139.96;28.27
7906;BME280;13291;40.472;-3.878;2023-04-08T00:43:09;52963.97;;;-139.96;28.48
7906;BME280;13291;40.472;-3.878;2023-04-08T00:45:36;53012.00;;;-139.96;28.30
7906;BME280;13291;40.472;-3.878;2023-04-08T00:48:04;52991.97;;;-139.96;28.43
7906;BME280;13291;40.472;-3.878;2023-04-08T00:50:31;52997.97;;;-139.96;28.71
7906;BME280;13291;40.472;-3.878;2023-04-08T00:52:58;52979.97;;;-139.96;28.83
7906;BME280;13291;40.472;-3.878;2023-04-08T00:55:25;52971.97;;;-139.96;28.23
7906;BME280;13291;40.472;-3.878;2023-04-08T00:57:54;52949.97;;;-139.96;28.59
7906;BME280;13291;40.472;-3.878;2023-04-08T01:00:22;52977.97;;;-139.96;28.13
7906;BME280;13291;40.472;-3.878;2023-04-08T01:02:56;52989.97;;;-139.96;27.80
7906;BME280;13291;40.472;-3.878;2023-04-08T01:05:32;52971.97;;;-139.96;27.73
7906;BME280;13291;40.472;-3.878;2023-04-08T01:08:05;52985.97;;;-139.96;27.57
7906;BME280;13291;40.472;-3.878;2023-04-08T01:10:34;52963.97;;;-139.96;27.33
7906;BME280;13291;40.472;-3.878;2023-04-08T01:13:07;52965.97;;;-139.96;27.35
7906;BME280;13291;40.472;-3.878;2023-04-08T01:15:37;52977.97;;;-139.96;26.91
7906;BME280;13291;40.472;-3.878;2023-04-08T01:18:08;52981.97;;;-139.96;27.10
7906;BME280;13291;40.472;-3.878;2023-04-08T01:20:37;52997.97;;;-139.96;26.77
7906;BME280;13291;40.472;-3.878;2023-04-08T01:23:12;52927.97;;;-139.96;26.67
7906;BME280;13291;40.472;-3.878;2023-04-08T01:25:46;52971.97;;;-139.96;26.02
7906;BME280;13291;40.472;-3.878;2023-04-08T01:28:15;52955.97;;;-139.96;26.26
7906;BME280;13291;40.472;-3.878;2023-04-08T01:30:44;52995.97;;;-139.96;26.54
7906;BME280;13291;40.472;-3.878;2023-04-08T01:33:14;52963.97;;;-139.96;26.47
7906;BME280;13291;40.472;-3.878;2023-04-08T01:35:41;52977.97;;;-139.96;26.77
7906;BME280;13291;40.472;-3.878;2023-04-08T01:38:13;52957.97;;;-139.96;26.40
7906;BME280;13291;40.472;-3.878;2023-04-08T01:40:41;52987.97;;;-139.96;26.40
7906;BME280;13291;40.472;-3.878;2023-04-08T01:43:12;52967.97;;;-139.96;26.54
7906;BME280;13291;40.472;-3.878;2023-04-08T01:45:40;52989.97;;;-139.96;26.81
7906;BME280;13291;40.472;-3.878;2023-04-08T01:48:08;52983.97;;;-139.96;26.52
7906;BME280;13291;40.472;-3.878;2023-04-08T01:50:36;52965.97;;;-139.96;26.33
7906;BME280;13291;40.472;-3.878;2023-04-08T01:53:05;52973.97;;;-139.96;26.35
7906;BME280;13291;40.472;-3.878;2023-04-08T01:55:34;52999.97;;;-139.96;25.97
7906;BME280;13291;40.472;-3.878;2023-04-08T01:58:04;52973.97;;;-139.96;25.90
7906;BME280;13291;40.472;-3.878;2023-04-08T02:00:35;52943.97;;;-139.96;25.58
7906;BME280;13291;40.472;-3.878;2023-04-08T02:03:04;52979.97;;;-139.96;25.93
7906;BME280;13291;40.472;-3.878;2023-04-08T02:05:32;52979.97;;;-139.96;26.21
7906;BME280;13291;40.472;-3.878;2023-04-08T02:07:59;52989.97;;;-139.96;26.52
7906;BME280;13291;40.472;-3.878;2023-04-08T02:10:26;52967.97;;;-139.96;26.65
7906;BME280;13291;40.472;-3.878;2023-04-08T02:12:54;52997.97;;;-139.96;26.49
7906;BME280;13291;40.472;-3.878;2023-04-08T02:15:21;52965.97;;;-139.96;26.45
7906;BME280;13291;40.472;-3.878;2023-04-08T02:17:53;53001.97;;;-139.96;27.03
7906;BME280;13291;40.472;-3.878;2023-04-08T02:20:23;52977.97;;;-139.96;26.86
7906;BME280;13291;40.472;-3.878;2023-04-08T02:22:56;52941.97;;;-139.96;26.97
7906;BME280;13291;40.472;-3.878;2023-04-08T02:25:25;52981.97;;;-139.96;27.04
7906;BME280;13291;40.472;-3.878;2023-04-08T02:27:54;52999.97;;;-139.96;27.00
7906;BME280;13291;40.472;-3.878;2023-04-08T02:30:22;52983.97;;;-139.96;27.76
7906;BME280;13291;40.472;-3.878;2023-04-08T02:32:53;53001.97;;;-139.96;27.75
7906;BME280;13291;40.472;-3.878;2023-04-08T02:35:20;52973.97;;;-139.96;28.00
7906;BME280;13291;40.472;-3.878;2023-04-08T02:37:47;52989.97;;;-139.96;27.29
7906;BME280;13291;40.472;-3.878;2023-04-08T02:40:24;52999.97;;;-139.96;27.08
7906;BME280;13291;40.472;-3.878;2023-04-08T02:42:52;52977.97;;;-139.96;27.16
7906;BME280;13291;40.472;-3.878;2023-04-08T02:45:19;53003.97;;;-139.96;26.70
7906;BME280;13291;40.472;-3.878;2023-04-08T02:47:46;52993.97;;;-139.96;26.74
7906;BME280;13291;40.472;-3.878;2023-04-08T02:50:14;52983.97;;;-139.96;26.89
7906;BME280;13291;40.472;-3.878;2023-04-08T02:52:41;53001.97;;;-139.96;27.03
7906;BME280;13291;40.472;-3.878;2023-04-08T02:55:09;52973.97;;;-139.96;27.14
7906;BME280;13291;40.472;-3.878;2023-04-08T02:57:37;52977.97;;;-139.96;27.06
7906;BME280;13291;40.472;-3.878;2023-04-08T03:00:05;53003.97;;;-139.96;26.68
7906;BME280;13291;40.472;-3.878;2023-04-08T03:02:33;52965.97;;;-139.96;26.91
7906;BME280;13291;40.472;-3.878;2023-04-08T03:04:59;52989.97;;;-139.96;26.90
7906;BME280;13291;40.472;-3.878;2023-04-08T03:07:28;52983.97;;;-139.96;26.98
7906;BME280;13291;40.472;-3.878;2023-04-08T03:09:55;52979.97;;;-139.96;27.01
7906;BME280;13291;40.472;-3.878;2023-04-08T03:12:22;53020.00;;;-139.96;27.17
7906;BME280;13291;40.472;-3.878;2023-04-08T03:14:49;53022.00;;;-139.96;27.29
7906;BME280;13291;40.472;-3.878;2023-04-08T03:17:16;53036.00;;;-139.96;27.10
7906;BME280;13291;40.472;-3.878;2023-04-08T03:19:43;53003.97;;;-139.96;27.18
7906;BME280;13291;40.472;-3.878;2023-04-08T03:22:10;53003.97;;;-139.96;27.08
7906;BME280;13291;40.472;-3.878;2023-04-08T03:24:39;53016.00;;;-139.96;27.27
7906;BME280;13291;40.472;-3.878;2023-04-08T03:27:06;53016.00;;;-139.96;27.30
7906;BME280;13291;40.472;-3.878;2023-04-08T03:29:33;53034.00;;;-139.96;27.03
7906;BME280;13291;40.472;-3.878;2023-04-08T03:32:00;53016.00;;;-139.96;27.06
7906;BME280;13291;40.472;-3.878;2023-04-08T03:34:27;52977.97;;;-139.96;26.96
7906;BME280;13291;40.472;-3.878;2023-04-08T03:36:54;52987.97;;;-139.96;26.86
7906;BME280;13291;40.472;-3.878;2023-04-08T03:39:21;53034.00;;;-139.96;26.87
7906;BME280;13291;40.472;-3.878;2023-04-08T03:41:49;53018.00;;;-139.96;27.15
7906;BME280;13291;40.472;-3.878;2023-04-08T03:44:16;52995.97;;;-139.96;27.10
7906;BME280;13291;40.472;-3.878;2023-04-08T03:46:43;53014.00;;;-139.96;27.10
7906;BME280;13291;40.472;-3.878;2023-04-08T03:49:10;52997.97;;;-139.96;26.94
7906;BME280;13291;40.472;-3.878;2023-04-08T03:51:37;53007.97;;;-139.96;27.08
7906;BME280;13291;40.472;-3.878;2023-04-08T03:54:03;53009.97;;;-139.96;27.04
7906;BME280;13291;40.472;-3.878;2023-04-08T03:56:32;53030.00;;;-139.96;27.33
7906;BME280;13291;40.472;-3.878;2023-04-08T03:59:00;53009.97;;;-139.96;27.30
7906;BME280;13291;40.472;-3.878;2023-04-08T04:01:27;53005.97;;;-139.96;27.26
7906;BME280;13291;40.472;-3.878;2023-04-08T04:03:54;52991.97;;;-139.96;27.28
7906;BME280;13291;40.472;-3.878;2023-04-08T04:06:21;53003.97;;;-139.96;27.20
7906;BME280;13291;40.472;-3.878;2023-04-08T04:08:48;53022.00;;;-139.96;27.10
7906;BME280;13291;40.472;-3.878;2023-04-08T04:11:15;52969.97;;;-139.96;27.24
7906;BME280;13291;40.472;-3.878;2023-04-08T04:13:42;52959.97;;;-139.96;27.13
7906;BME280;13291;40.472;-3.878;2023-04-08T04:16:11;53001.97;;;-139.96;27.22
7906;BME280;13291;40.472;-3.878;2023-04-08T04:18:37;53032.00;;;-139.96;27.10
7906;BME280;13291;40.472;-3.878;2023-04-08T04:21:05;53001.97;;;-139.96;27.02
7906;BME280;13291;40.472;-3.878;2023-04-08T04:23:32;53005.97;;;-139.96;27.02
7906;BME280;13291;40.472;-3.878;2023-04-08T04:25:59;53022.00;;;-139.96;27.10
7906;BME280;13291;40.472;-3.878;2023-04-08T04:28:26;53022.00;;;-139.96;27.21
7906;BME280;13291;40.472;-3.878;2023-04-08T04:30:53;53020.00;;;-139.96;27.22
7906;BME280;13291;40.472;-3.878;2023-04-08T04:33:21;53001.97;;;-139.96;27.23
7906;BME280;13291;40.472;-3.878;2023-04-08T04:35:48;53003.97;;;-139.96;27.20
7906;BME280;13291;40.472;-3.878;2023-04-08T04:38:15;52985.97;;;-139.96;27.35
7906;BME280;13291;40.472;-3.878;2023-04-08T04:40:42;53005.97;;;-139.96;27.39
7906;BME280;13291;40.472;-3.878;2023-04-08T04:43:09;52991.97;;;-139.96;27.31
7906;BME280;13291;40.472;-3.878;2023-04-08T04:45:36;53009.97;;;-139.96;27.17
7906;BME280;13291;40.472;-3.878;2023-04-08T04:48:03;53018.00;;;-139.96;27.06
7906;BME280;13291;40.472;-3.878;2023-04-08T04:50:32;53018.00;;;-139.96;27.08
7906;BME280;13291;40.472;-3.878;2023-04-08T04:52:59;52995.97;;;-139.96;27.24
7906;BME280;13291;40.472;-3.878;2023-04-08T04:55:26;53003.97;;;-139.96;27.22
7906;BME280;13291;40.472;-3.878;2023-04-08T04:57:52;53003.97;;;-139.96;27.31
7906;BME280;13291;40.472;-3.878;2023-04-08T05:00:20;52999.97;;;-139.96;27.29
7906;BME280;13291;40.472;-3.878;2023-04-08T05:02:46;53014.00;;;-139.96;27.22
7906;BME280;13291;40.472;-3.878;2023-04-08T05:05:13;53024.00;;;-139.96;27.17
7906;BME280;13291;40.472;-3.878;2023-04-08T05:07:42;53012.00;;;-139.96;27.37
7906;BME280;13291;40.472;-3.878;2023-04-08T05:10:10;53018.00;;;-139.96;27.37
7906;BME280;13291;40.472;-3.878;2023-04-08T05:12:36;53001.97;;;-139.96;27.48
7906;BME280;13291;40.472;-3.878;2023-04-08T05:15:04;53005.97;;;-139.96;27.27
7906;BME280;13291;40.472;-3.878;2023-04-08T05:17:31;52997.97;;;-139.96;27.14
7906;BME280;13291;40.472;-3.878;2023-04-08T05:19:58;53050.00;;;-139.96;27.44
7906;BME280;13291;40.472;-3.878;2023-04-08T05:22:25;53026.00;;;-139.96;27.39
7906;BME280;13291;40.472;-3.878;2023-04-08T05:24:53;53009.97;;;-139.96;27.49
7906;BME280;13291;40.472;-3.878;2023-04-08T05:27:20;53032.00;;;-139.96;27.47
7906;BME280;13291;40.472;-3.878;2023-04-08T05:29:47;53024.00;;;-139.96;27.38
7906;BME280;13291;40.472;-3.878;2023-04-08T05:32:14;52999.97;;;-139.96;27.44
7906;BME280;13291;40.472;-3.878;2023-04-08T05:34:42;53026.00;;;-139.96;27.42
7906;BME280;13291;40.472;-3.878;2023-04-08T05:37:10;52985.97;;;-139.96;27.52
7906;BME280;13291;40.472;-3.878;2023-04-08T05:39:37;53005.97;;;-139.96;27.62
7906;BME280;13291;40.472;-3.878;2023-04-08T05:42:05;53001.97;;;-139.96;27.52
7906;BME280;13291;40.472;-3.878;2023-04-08T05:44:32;53038.00;;;-139.96;27.54
7906;BME280;13291;40.472;-3.878;2023-04-08T05:46:59;53026.00;;;-139.96;27.46
7906;BME280;13291;40.472;-3.878;2023-04-08T05:49:26;53014.00;;;-139.96;27.37
7906;BME280;13291;40.472;-3.878;2023-04-08T05:51:53;53026.00;;;-139.96;27.53
7906;BME280;13291;40.472;-3.878;2023-04-08T05:54:20;53030.00;;;-139.96;27.59
7906;BME280;13291;40.472;-3.878;2023-04-08T05:56:46;53022.00;;;-139.96;27.61
7906;BME280;13291;40.472;-3.878;2023-04-08T05:59:15;53038.00;;;-139.96;27.86
7906;BME280;13291;40.472;-3.878;2023-04-08T06:01:41;53036.00;;;-139.96;27.85
7906;BME280;13291;40.472;-3.878;2023-04-08T06:04:08;53026.00;;;-139.96;27.81
7906;BME280;13291;40.472;-3.878;2023-04-08T06:06:36;53014.00;;;-139.96;27.91
7906;BME280;13291;40.472;-3.878;2023-04-08T06:09:04;52989.97;;;-139.96;27.73
7906;BME280;13291;40.472;-3.878;2023-04-08T06:11:31;53012.00;;;-139.96;28.07
7906;BME280;13291;40.472;-3.878;2023-04-08T06:13:58;53005.97;;;-139.96;27.64
7906;BME280;13291;40.472;-3.878;2023-04-08T06:16:26;52993.97;;;-139.96;27.64
7906;BME280;13291;40.472;-3.878;2023-04-08T06:18:53;53001.97;;;-139.96;27.44
7906;BME280;13291;40.472;-3.878;2023-04-08T06:21:20;52995.97;;;-139.96;27.39
7906;BME280;13291;40.472;-3.878;2023-04-08T06:23:47;52999.97;;;-139.96;27.48
7906;BME280;13291;40.472;-3.878;2023-04-08T06:26:14;53007.97;;;-139.96;27.25
7906;BME280;13291;40.472;-3.878;2023-04-08T06:28:41;53038.00;;;-139.96;27.22
7906;BME280;13291;40.472;-3.878;2023-04-08T06:31:08;52979.97;;;-139.96;27.92
7906;BME280;13291;40.472;-3.878;2023-04-08T06:33:36;52979.97;;;-139.96;27.47
7906;BME280;13291;40.472;-3.878;2023-04-08T06:36:04;53018.00;;;-139.96;27.25
7906;BME280;13291;40.472;-3.878;2023-04-08T06:38:31;53038.00;;;-139.96;27.39
7906;BME280;13291;40.472;-3.878;2023-04-08T06:41:01;53005.97;;;-139.96;27.32
7906;BME280;13291;40.472;-3.878;2023-04-08T06:43:28;53016.00;;;-139.96;27.48
7906;BME280;13291;40.472;-3.878;2023-04-08T06:45:56;53030.00;;;-139.96;27.34
7906;BME280;13291;40.472;-3.878;2023-04-08T06:48:23;53001.97;;;-139.96;27.65
7906;BME280;13291;40.472;-3.878;2023-04-08T06:50:54;53005.97;;;-139.96;27.54
7906;BME280;13291;40.472;-3.878;2023-04-08T06:53:21;53001.97;;;-139.96;27.49
7906;BME280;13291;40.472;-3.878;2023-04-08T06:55:49;53009.97;;;-139.96;27.64
7906;BME280;13291;40.472;-3.878;2023-04-08T06:58:16;53042.00;;;-139.96;27.51
7906;BME280;13291;40.472;-3.878;2023-04-08T07:00:43;53016.00;;;-139.96;27.73
7906;BME280;13291;40.472;-3.878;2023-04-08T07:03:10;53007.97;;;-139.96;27.92
7906;BME280;13291;40.472;-3.878;2023-04-08T07:05:37;52975.97;;;-139.96;28.44
7906;BME280;13291;40.472;-3.878;2023-04-08T07:08:05;52981.97;;;-139.96;28.53
7906;BME280;13291;40.472;-3.878;2023-04-08T07:10:33;53048.00;;;-139.96;29.82
7906;BME280;13291;40.472;-3.878;2023-04-08T07:13:00;53012.00;;;-139.96;28.72
7906;BME280;13291;40.472;-3.878;2023-04-08T07:15:27;52993.97;;;-139.96;28.63
7906;BME280;13291;40.472;-3.878;2023-04-08T07:17:54;53007.97;;;-139.96;28.67
7906;BME280;13291;40.472;-3.878;2023-04-08T07:20:22;53038.00;;;-139.96;28.99
7906;BME280;13291;40.472;-3.878;2023-04-08T07:22:49;53012.00;;;-139.96;28.73
7906;BME280;13291;40.472;-3.878;2023-04-08T07:25:17;53034.00;;;-139.96;28.88
7906;BME280;13291;40.472;-3.878;2023-04-08T07:27:44;52985.97;;;-139.96;28.67
7906;BME280;13291;40.472;-3.878;2023-04-08T07:30:11;52965.97;;;-139.96;28.78
7906;BME280;13291;40.472;-3.878;2023-04-08T07:32:38;53014.00;;;-139.96;30.21
7906;BME280;13291;40.472;-3.878;2023-04-08T07:35:05;52969.97;;;-139.96;29.11
7906;BME280;13291;40.472;-3.878;2023-04-08T07:37:32;52953.97;;;-139.96;28.96
7906;BME280;13291;40.472;-3.878;2023-04-08T07:39:59;52975.97;;;-139.96;29.69
7906;BME280;13291;40.472;-3.878;2023-04-08T07:42:28;53001.97;;;-139.96;29.73
7906;BME280;13291;40.472;-3.878;2023-04-08T07:44:55;52963.97;;;-139.96;28.66
7906;BME280;13291;40.472;-3.878;2023-04-08T07:47:21;52977.97;;;-139.96;28.72
7906;BME280;13291;40.472;-3.878;2023-04-08T07:49:48;52991.97;;;-139.96;29.01
7906;BME280;13291;40.472;-3.878;2023-04-08T07:52:15;52999.97;;;-139.96;28.65
7906;BME280;13291;40.472;-3.878;2023-04-08T07:54:42;52935.97;;;-139.96;29.15
7906;BME280;13291;40.472;-3.878;2023-04-08T07:57:09;52973.97;;;-139.96;28.09
7906;BME280;13291;40.472;-3.878;2023-04-08T07:59:38;52981.97;;;-139.96;29.02
7906;BME280;13291;40.472;-3.878;2023-04-08T08:02:05;52963.97;;;-139.96;28.88
7906;BME280;13291;40.472;-3.878;2023-04-08T08:04:32;52951.97;;;-139.96;29.13
7906;BME280;13291;40.472;-3.878;2023-04-08T08:06:59;52939.97;;;-139.96;28.78
7906;BME280;13291;40.472;-3.878;2023-04-08T08:09:26;52945.97;;;-139.96;29.17
7906;BME280;13291;40.472;-3.878;2023-04-08T08:11:52;52965.97;;;-139.96;28.73
7906;BME280;13291;40.472;-3.878;2023-04-08T08:14:19;52981.97;;;-139.96;28.36
7906;BME280;13291;40.472;-3.878;2023-04-08T08:16:48;52943.97;;;-139.96;27.80
7906;BME280;13291;40.472;-3.878;2023-04-08T08:19:15;52961.97;;;-139.96;28.38
7906;BME280;13291;40.472;-3.878;2023-04-08T08:21:42;52929.97;;;-139.96;28.10
7906;BME280;13291;40.472;-3.878;2023-04-08T08:24:09;52949.97;;;-139.96;27.59
7906;BME280;13291;40.472;-3.878;2023-04-08T08:26:36;52945.97;;;-139.96;28.19
7906;BME280;13291;40.472;-3.878;2023-04-08T08:29:03;52935.97;;;-139.96;28.08
7906;BME280;13291;40.472;-3.878;2023-04-08T08:31:32;52927.97;;;-139.96;28.17
7906;BME280;13291;40.472;-3.878;2023-04-08T08:34:01;52957.97;;;-139.96;28.18
7906;BME280;13291;40.472;-3.878;2023-04-08T08:36:28;52955.97;;;-139.96;28.25
7906;BME280;13291;40.472;-3.878;2023-04-08T08:38:55;52925.97;;;-139.96;27.47
7906;BME280;13291;40.472;-3.878;2023-04-08T08:41:22;52929.97;;;-139.96;27.10
7906;BME280;13291;40.472;-3.878;2023-04-08T08:43:49;52925.97;;;-139.96;27.35
7906;BME280;13291;40.472;-3.878;2023-04-08T08:46:17;52937.97;;;-139.96;27.39
7906;BME280;13291;40.472;-3.878;2023-04-08T08:48:44;52945.97;;;-139.96;27.44
7906;BME280;13291;40.472;-3.878;2023-04-08T08:51:12;52919.97;;;-139.96;27.15
7906;BME280;13291;40.472;-3.878;2023-04-08T08:53:40;52941.97;;;-139.96;27.71
7906;BME280;13291;40.472;-3.878;2023-04-08T08:56:09;52961.97;;;-139.96;27.66
7906;BME280;13291;40.472;-3.878;2023-04-08T08:58:36;52903.97;;;-139.96;27.88
7906;BME280;13291;40.472;-3.878;2023-04-08T09:01:31;52943.97;;;-139.96;27.82
7906;BME280;13291;40.472;-3.878;2023-04-08T09:04:10;52885.97;;;-139.96;27.95
7906;BME280;13291;40.472;-3.878;2023-04-08T09:06:39;52955.97;;;-139.96;27.18
7906;BME280;13291;40.472;-3.878;2023-04-08T09:09:06;52917.97;;;-139.96;27.42
7906;BME280;13291;40.472;-3.878;2023-04-08T09:11:36;52901.97;;;-139.96;26.87
7906;BME280;13291;40.472;-3.878;2023-04-08T09:14:04;52921.97;;;-139.96;26.97
7906;BME280;13291;40.472;-3.878;2023-04-08T09:16:31;52923.97;;;-139.96;27.06
7906;BME280;13291;40.472;-3.878;2023-04-08T09:19:09;52877.97;;;-139.96;25.92
7906;BME280;13291;40.472;-3.878;2023-04-08T09:21:38;52921.97;;;-139.96;26.01
7906;BME280;13291;40.472;-3.878;2023-04-08T09:24:06;52929.97;;;-139.96;26.40
7906;BME280;13291;40.472;-3.878;2023-04-08T09:26:33;52925.97;;;-139.96;26.83
7906;BME280;13291;40.472;-3.878;2023-04-08T09:29:02;52937.97;;;-139.96;25.77
7906;BME280;13291;40.472;-3.878;2023-04-08T09:31:31;52917.97;;;-139.96;25.72
7906;BME280;13291;40.472;-3.878;2023-04-08T09:34:06;52929.97;;;-139.96;26.11
7906;BME280;13291;40.472;-3.878;2023-04-08T09:36:34;52929.97;;;-139.96;26.08
7906;BME280;13291;40.472;-3.878;2023-04-08T09:39:03;52921.97;;;-139.96;25.70
7906;BME280;13291;40.472;-3.878;2023-04-08T09:41:33;52917.97;;;-139.96;25.49
7906;BME280;13291;40.472;-3.878;2023-04-08T09:44:02;52937.97;;;-139.96;24.88
7906;BME280;13291;40.472;-3.878;2023-04-08T09:46:32;52917.97;;;-139.96;25.48
7906;BME280;13291;40.472;-3.878;2023-04-08T09:49:05;52957.97;;;-139.96;26.03
7906;BME280;13291;40.472;-3.878;2023-04-08T09:51:35;52911.97;;;-139.96;25.90
7906;BME280;13291;40.472;-3.878;2023-04-08T09:54:12;52925.97;;;-139.96;25.98
7906;BME280;13291;40.472;-3.878;2023-04-08T09:56:42;52911.97;;;-139.96;25.30
7906;BME280;13291;40.472;-3.878;2023-04-08T09:59:13;52915.97;;;-139.96;25.39
7906;BME280;13291;40.472;-3.878;2023-04-08T10:01:46;52909.97;;;-139.96;25.06
7906;BME280;13291;40.472;-3.878;2023-04-08T10:04:18;52935.97;;;-139.96;24.90
7906;BME280;13291;40.472;-3.878;2023-04-08T10:06:47;52889.97;;;-139.96;24.73
7906;BME280;13291;40.472;-3.878;2023-04-08T10:09:20;52901.97;;;-139.96;24.60
7906;BME280;13291;40.472;-3.878;2023-04-08T10:11:48;52889.97;;;-139.96;25.51
7906;BME280;13291;40.472;-3.878;2023-04-08T10:14:15;52889.97;;;-139.96;25.09
7906;BME280;13291;40.472;-3.878;2023-04-08T10:16:42;52913.97;;;-139.96;24.43
7906;BME280;13291;40.472;-3.878;2023-04-08T10:19:36;52877.97;;;-139.96;24.53
7906;BME280;13291;40.472;-3.878;2023-04-08T10:22:47;52909.97;;;-139.96;24.24
7906;BME280;13291;40.472;-3.878;2023-04-08T10:25:31;52929.97;;;-139.96;24.38
7906;BME280;13291;40.472;-3.878;2023-04-08T10:27:59;52867.97;;;-139.96;24.07
7906;BME280;13291;40.472;-3.878;2023-04-08T10:30:41;52905.97;;;-139.96;24.39
7906;BME280;13291;40.472;-3.878;2023-04-08T10:33:11;52919.97;;;-139.96;25.20
7906;BME280;13291;40.472;-3.878;2023-04-08T10:35:41;52911.97;;;-139.96;25.29
7906;BME280;13291;40.472;-3.878;2023-04-08T10:38:11;52899.97;;;-139.96;24.63
7906;BME280;13291;40.472;-3.878;2023-04-08T10:40:40;52875.97;;;-139.96;24.43
7906;BME280;13291;40.472;-3.878;2023-04-08T10:43:08;52907.97;;;-139.96;24.25
7906;BME280;13291;40.472;-3.878;2023-04-08T10:45:36;52905.97;;;-139.96;24.83
7906;BME280;13291;40.472;-3.878;2023-04-08T10:48:13;52903.97;;;-139.96;24.30
7906;BME280;13291;40.472;-3.878;2023-04-08T10:50:42;52865.97;;;-139.96;24.37
7906;BME280;13291;40.472;-3.878;2023-04-08T10:53:09;52887.97;;;-139.96;24.39
7906;BME280;13291;40.472;-3.878;2023-04-08T10:55:36;52897.97;;;-139.96;24.04
7906;BME280;13291;40.472;-3.878;2023-04-08T10:58:09;52887.97;;;-139.96;23.39
7906;BME280;13291;40.472;-3.878;2023-04-08T11:00:38;52889.97;;;-139.96;23.21
7906;BME280;13291;40.472;-3.878;2023-04-08T11:03:06;52901.97;;;-139.96;23.67
7906;BME280;13291;40.472;-3.878;2023-04-08T11:05:34;52857.97;;;-139.96;24.06
7906;BME280;13291;40.472;-3.878;2023-04-08T11:08:03;52909.97;;;-139.96;22.96
7906;BME280;13291;40.472;-3.878;2023-04-08T11:10:30;52921.97;;;-139.96;23.81
7906;BME280;13291;40.472;-3.878;2023-04-08T11:13:05;52873.97;;;-139.96;24.15
7906;BME280;13291;40.472;-3.878;2023-04-08T11:15:35;52883.97;;;-139.96;24.05
7906;BME280;13291;40.472;-3.878;2023-04-08T11:18:02;52883.97;;;-139.96;24.32
7906;BME280;13291;40.472;-3.878;2023-04-08T11:20:31;52873.97;;;-139.96;24.10
7906;BME280;13291;40.472;-3.878;2023-04-08T11:23:00;52873.97;;;-139.96;23.82
7906;BME280;13291;40.472;-3.878;2023-04-08T11:25:28;52847.97;;;-139.96;23.25
7906;BME280;13291;40.472;-3.878;2023-04-08T11:27:56;52873.97;;;-139.96;22.69
7906;BME280;13291;40.472;-3.878;2023-04-08T11:30:24;52823.94;;;-139.96;23.66
7906;BME280;13291;40.472;-3.878;2023-04-08T11:32:54;52857.97;;;-139.96;22.55
7906;BME280;13291;40.472;-3.878;2023-04-08T11:35:21;52885.97;;;-139.96;22.79
7906;BME280;13291;40.472;-3.878;2023-04-08T11:37:48;52843.97;;;-139.96;23.07
7906;BME280;13291;40.472;-3.878;2023-04-08T11:40:19;52853.97;;;-139.96;23.11
7906;BME280;13291;40.472;-3.878;2023-04-08T11:42:48;52831.97;;;-139.96;22.78
7906;BME280;13291;40.472;-3.878;2023-04-08T11:45:17;52849.97;;;-139.96;23.57
7906;BME280;13291;40.472;-3.878;2023-04-08T11:47:44;52869.97;;;-139.96;22.37
7906;BME280;13291;40.472;-3.878;2023-04-08T11:50:21;52851.97;;;-139.96;22.96
7906;BME280;13291;40.472;-3.878;2023-04-08T11:52:49;52843.97;;;-139.96;23.00
7906;BME280;13291;40.472;-3.878;2023-04-08T11:55:24;52885.97;;;-139.96;22.48
7906;BME280;13291;40.472;-3.878;2023-04-08T11:57:52;52861.97;;;-139.96;22.29
7906;BME280;13291;40.472;-3.878;2023-04-08T12:00:20;52881.97;;;-139.96;22.80
7906;BME280;13291;40.472;-3.878;2023-04-08T12:02:47;52845.97;;;-139.96;22.18
7906;BME280;13291;40.472;-3.878;2023-04-08T12:05:16;52819.94;;;-139.96;22.15
7906;BME280;13291;40.472;-3.878;2023-04-08T12:07:43;52839.97;;;-139.96;22.91
7906;BME280;13291;40.472;-3.878;2023-04-08T12:10:11;52805.94;;;-139.96;23.44
7906;BME280;13291;40.472;-3.878;2023-04-08T12:12:38;52833.97;;;-139.96;23.11
7906;BME280;13291;40.472;-3.878;2023-04-08T12:15:07;52841.97;;;-139.96;22.33
7906;BME280;13291;40.472;-3.878;2023-04-08T12:17:34;52833.97;;;-139.96;23.12
7906;BME280;13291;40.472;-3.878;2023-04-08T12:20:01;52839.97;;;-139.96;23.77
7906;BME280;13291;40.472;-3.878;2023-04-08T12:22:30;52819.94;;;-139.96;23.45
7906;BME280;13291;40.472;-3.878;2023-04-08T12:24:56;52821.94;;;-139.96;23.38
7906;BME280;13291;40.472;-3.878;2023-04-08T12:27:23;52843.97;;;-139.96;22.16
7906;BME280;13291;40.472;-3.878;2023-04-08T12:29:50;52797.94;;;-139.96;23.04
7906;BME280;13291;40.472;-3.878;2023-04-08T12:32:17;52827.94;;;-139.96;22.55
7906;BME280;13291;40.472;-3.878;2023-04-08T12:34:44;52785.94;;;-139.96;22.69
7906;BME280;13291;40.472;-3.878;2023-04-08T12:37:12;52811.94;;;-139.96;22.11
7906;BME280;13291;40.472;-3.878;2023-04-08T12:39:40;52807.94;;;-139.96;21.89
7906;BME280;13291;40.472;-3.878;2023-04-08T12:42:07;52809.94;;;-139.96;22.16
7906;BME280;13291;40.472;-3.878;2023-04-08T12:44:34;52825.94;;;-139.96;22.15
7906;BME280;13291;40.472;-3.878;2023-04-08T12:47:01;52813.94;;;-139.96;21.89